createdAt,value
2023-01-10T00:04:28.100Z,99.99
2023-01-10T00:09:28.024Z,99.99
2023-01-10T00:14:27.946Z,99.99
2023-01-10T00:19:27.884Z,99.99
2023-01-10T00:24:27.817Z,99.99
2023-01-10T00:29:27.785Z,99.99
2023-01-10T00:34:27.652Z,99.99
2023-01-10T00:39:27.639Z,99.99
2023-01-10T00:44:27.532Z,99.99
2023-01-10T00:49:27.488Z,99.99
2023-01-10T00:54:27.382Z,99.99
2023-01-10T00:59:29.148Z,99.99
2023-01-10T01:04:27.244Z,99.99
2023-01-10T01:09:53.835Z,99.99
2023-01-10T01:14:46.071Z,99.99
2023-01-10T01:19:45.993Z,99.99
2023-01-10T01:24:45.931Z,99.99
2023-01-10T01:29:45.869Z,99.99
2023-01-10T01:34:45.799Z,99.99
2023-01-10T01:39:45.700Z,99.99
2023-01-10T01:44:45.659Z,99.99
2023-01-10T01:49:45.583Z,99.99
2023-01-10T01:54:45.544Z,99.99
2023-01-10T01:59:45.447Z,99.99
2023-01-10T02:04:45.399Z,99.99
2023-01-10T02:09:45.313Z,99.99
2023-01-10T02:14:45.264Z,99.99
2023-01-10T02:19:45.202Z,99.99
2023-01-10T02:24:45.127Z,99.99
2023-01-10T02:29:45.029Z,99.99
2023-01-10T02:34:45.014Z,99.99
2023-01-10T02:39:44.900Z,99.99
2023-01-10T02:44:44.858Z,99.85
2023-01-10T02:49:44.795Z,99.99
2023-01-10T02:54:44.709Z,99.99
2023-01-10T02:59:44.648Z,99.99
2023-01-10T03:04:44.624Z,99.99
2023-01-10T03:09:44.524Z,99.99
2023-01-10T03:14:44.465Z,99.99
2023-01-10T03:19:44.393Z,99.99
2023-01-10T03:24:44.329Z,99.99
2023-01-10T03:29:44.232Z,99.99
2023-01-10T03:34:44.197Z,99.99
2023-01-10T03:39:44.113Z,99.99
2023-01-10T03:44:44.078Z,99.99
2023-01-10T03:49:43.990Z,99.99
2023-01-10T03:54:43.919Z,99.99
2023-01-10T03:59:43.847Z,99.99
2023-01-10T04:04:43.797Z,99.99
2023-01-10T04:09:43.693Z,99.99
2023-01-10T04:14:43.644Z,99.99
2023-01-10T04:19:43.570Z,99.99
2023-01-10T04:24:43.515Z,99.99
2023-01-10T04:29:43.434Z,99.99
2023-01-10T04:34:43.398Z,99.99
2023-01-10T04:39:43.291Z,99.99
2023-01-10T04:44:43.255Z,99.99
2023-01-10T04:49:43.179Z,99.99
2023-01-10T04:54:43.113Z,99.99
2023-01-10T04:59:43.029Z,99.99
2023-01-10T05:04:42.990Z,99.52
2023-01-10T05:09:42.913Z,99.22
2023-01-10T05:14:42.856Z,99.37
2023-01-10T05:19:57.388Z,99.26
2023-01-10T05:24:49.775Z,99.62
2023-01-10T05:29:49.749Z,99.87
2023-01-10T05:34:49.671Z,99.99
2023-01-10T05:39:49.607Z,99.99
2023-01-10T05:44:49.515Z,99.99
2023-01-10T05:49:49.504Z,99.99
2023-01-10T05:54:49.378Z,99.99
2023-01-10T05:59:49.339Z,99.99
2023-01-10T06:04:49.265Z,99.99
2023-01-10T06:09:49.209Z,99.99
2023-01-10T06:14:49.123Z,99.99
2023-01-10T06:19:49.089Z,99.99
2023-01-10T06:24:48.987Z,99.99
2023-01-10T06:29:48.934Z,99.99
2023-01-10T06:34:48.864Z,99.99
2023-01-10T06:39:48.797Z,99.99
2023-01-10T06:44:48.815Z,99.99
2023-01-10T06:49:48.660Z,99.99
2023-01-10T06:54:48.612Z,99.99
2023-01-10T06:59:48.552Z,99.99
2023-01-10T07:04:48.493Z,99.99
2023-01-10T07:09:48.415Z,99.99
2023-01-10T07:14:48.327Z,99.99
2023-01-10T07:19:48.270Z,99.99
2023-01-10T07:24:48.229Z,99.99
2023-01-10T07:29:48.151Z,99.99
2023-01-10T07:34:48.057Z,99.99
2023-01-10T07:39:48.022Z,99.82
2023-01-10T07:44:49.471Z,99.66
2023-01-10T07:49:47.892Z,98.73
2023-01-10T07:54:47.813Z,98.21
2023-01-10T07:59:47.761Z,98.00
2023-01-10T08:04:47.672Z,98.38
2023-01-10T08:09:47.639Z,97.91
2023-01-10T08:14:47.564Z,97.91
2023-01-10T08:19:47.503Z,98.12
2023-01-10T08:24:47.407Z,98.33
2023-01-10T08:29:47.366Z,97.91
2023-01-10T08:34:47.245Z,97.45
2023-01-10T08:39:47.234Z,96.69
2023-01-10T08:44:47.138Z,96.23
2023-01-10T08:49:47.068Z,94.98
2023-01-10T08:54:47.005Z,94.98
2023-01-10T08:59:46.948Z,93.66
2023-01-10T09:04:46.844Z,93.04
2023-01-10T09:09:46.812Z,86.64
2023-01-10T09:14:46.753Z,77.17
2023-01-10T09:19:46.679Z,75.93
2023-01-10T09:24:46.607Z,75.45
2023-01-10T09:29:46.554Z,73.33
2023-01-10T09:34:46.452Z,72.72
2023-01-10T09:39:46.411Z,70.54
2023-01-10T09:44:46.342Z,71.42
2023-01-10T09:49:46.255Z,71.19
2023-01-10T09:54:46.188Z,69.11
2023-01-10T09:59:46.138Z,68.74
2023-01-10T10:04:46.065Z,67.38
2023-01-10T10:09:46.014Z,66.50
2023-01-10T10:14:45.917Z,66.67
2023-01-10T10:19:45.874Z,70.64
2023-01-10T10:24:45.793Z,73.95
2023-01-10T10:29:45.741Z,72.28
2023-01-10T10:34:45.646Z,67.98
2023-01-10T10:39:45.583Z,72.44
2023-01-10T10:44:45.526Z,76.51
2023-01-10T10:49:45.498Z,77.86
2023-01-10T10:54:47.633Z,77.58
2023-01-10T10:59:45.356Z,77.69
2023-01-10T11:04:45.275Z,78.65
2023-01-10T11:09:45.188Z,78.65
2023-01-10T11:14:45.124Z,79.00
2023-01-10T11:19:45.043Z,78.41
2023-01-10T11:24:44.990Z,79.13
2023-01-10T11:29:44.918Z,78.51
2023-01-10T11:34:44.839Z,78.44
2023-01-10T11:39:44.775Z,77.55
2023-01-10T11:44:44.702Z,80.09
2023-01-10T11:49:44.657Z,78.65
2023-01-10T11:54:44.597Z,79.30
2023-01-10T11:59:44.520Z,80.51
2023-01-10T12:04:44.433Z,78.96
2023-01-10T12:09:44.444Z,78.17
2023-01-10T12:14:44.352Z,80.54
2023-01-10T12:19:44.260Z,80.58
2023-01-10T12:24:44.267Z,81.09
2023-01-10T12:29:44.147Z,80.44
2023-01-10T12:34:44.064Z,80.44
2023-01-10T12:39:43.981Z,80.95
2023-01-10T12:44:43.930Z,80.85
2023-01-10T12:49:43.867Z,80.75
2023-01-10T12:54:43.739Z,81.37
2023-01-10T12:59:43.719Z,81.81
2023-01-10T13:04:43.649Z,81.75
2023-01-10T13:09:43.548Z,83.19
2023-01-10T13:14:43.545Z,82.78
2023-01-10T13:19:43.477Z,83.61
2023-01-10T13:24:43.398Z,84.36
2023-01-10T13:29:43.282Z,84.78
2023-01-10T13:34:43.260Z,85.09
2023-01-10T13:39:43.165Z,85.19
2023-01-10T13:44:43.091Z,85.39
2023-01-10T13:49:43.048Z,85.09
2023-01-10T13:54:42.990Z,85.50
2023-01-10T13:59:42.926Z,84.09
2023-01-10T14:04:42.907Z,85.23
2023-01-10T14:09:42.773Z,84.41
2023-01-10T14:14:42.709Z,84.20
2023-01-10T14:19:42.636Z,83.06
2023-01-10T14:24:42.579Z,83.99
2023-01-10T14:29:42.493Z,84.20
2023-01-10T14:34:42.448Z,84.61
2023-01-10T14:39:42.449Z,84.72
2023-01-10T14:44:43.106Z,85.13
2023-01-10T14:49:42.268Z,85.23
2023-01-10T14:54:42.181Z,85.54
2023-01-10T14:59:42.076Z,85.64
2023-01-10T15:04:42.080Z,85.95
2023-01-10T15:09:42.017Z,85.54
2023-01-10T15:14:41.916Z,85.23
2023-01-10T15:19:41.822Z,85.54
2023-01-10T15:24:41.796Z,85.13
2023-01-10T15:29:43.699Z,84.81
2023-01-10T15:34:41.667Z,84.92
2023-01-10T15:39:41.586Z,84.72
2023-01-10T15:44:41.498Z,85.02
2023-01-10T15:49:41.440Z,84.09
2023-01-10T15:54:41.368Z,83.85
2023-01-10T15:59:41.289Z,83.64
2023-01-10T16:04:41.267Z,83.33
2023-01-10T16:09:41.225Z,83.23
2023-01-10T16:14:41.172Z,83.33
2023-01-10T16:19:41.039Z,82.92
2023-01-10T16:24:40.985Z,83.27
2023-01-10T16:29:40.895Z,83.89
2023-01-10T16:34:40.866Z,84.72
2023-01-10T16:39:40.739Z,85.33
2023-01-10T16:44:40.716Z,86.78
2023-01-10T16:49:40.637Z,87.29
2023-01-10T16:54:40.584Z,88.47
2023-01-10T16:59:40.496Z,89.29
2023-01-10T17:04:40.467Z,90.12
2023-01-10T17:09:40.377Z,90.64
2023-01-10T17:14:40.333Z,91.82
2023-01-10T17:19:40.240Z,92.02
2023-01-10T17:24:40.142Z,91.82
2023-01-10T17:29:40.128Z,92.02
2023-01-10T17:34:40.075Z,92.74
2023-01-10T17:39:40.001Z,93.47
2023-01-10T17:44:39.926Z,93.68
2023-01-10T17:49:39.817Z,95.22
2023-01-10T17:54:39.745Z,95.89
2023-01-10T17:59:39.689Z,96.82
2023-01-10T18:04:39.633Z,97.33
2023-01-10T18:09:39.582Z,97.44
2023-01-10T18:14:39.496Z,98.00
2023-01-10T18:19:39.411Z,99.04
2023-01-10T18:24:39.403Z,99.24
2023-01-10T18:29:39.288Z,99.99
2023-01-10T18:34:39.247Z,99.99
2023-01-10T18:39:39.200Z,99.99
2023-01-10T18:44:39.129Z,99.99
2023-01-10T18:49:39.082Z,99.99
2023-01-10T18:54:38.953Z,99.99
2023-01-10T18:59:38.883Z,99.99
2023-01-10T19:04:38.869Z,99.99
2023-01-10T19:09:38.760Z,99.99
2023-01-10T19:14:38.752Z,99.99
2023-01-10T19:19:38.691Z,99.99
2023-01-10T19:24:38.572Z,99.99
2023-01-10T19:29:38.500Z,99.86
2023-01-10T19:34:39.274Z,99.86
2023-01-10T19:39:38.360Z,99.34
2023-01-10T19:44:38.299Z,98.83
2023-01-10T19:49:38.262Z,98.72
2023-01-10T19:54:38.166Z,98.93
2023-01-10T19:59:38.083Z,98.72
2023-01-10T20:04:38.025Z,98.62
2023-01-10T20:09:37.964Z,98.57
2023-01-10T20:14:37.908Z,98.68
2023-01-10T20:19:37.855Z,98.78
2023-01-10T20:24:37.766Z,97.96
2023-01-10T20:29:37.676Z,97.85
2023-01-10T20:34:37.665Z,97.64
2023-01-10T20:39:37.554Z,97.75
2023-01-10T20:44:37.521Z,97.85
2023-01-10T20:49:38.385Z,97.64
2023-01-10T20:54:37.350Z,97.44
2023-01-10T20:59:37.296Z,97.44
2023-01-10T21:04:37.230Z,97.39
2023-01-10T21:09:37.183Z,96.98
2023-01-10T21:14:37.125Z,96.77
2023-01-10T21:19:37.019Z,97.08
2023-01-10T21:24:36.988Z,97.08
2023-01-10T21:29:36.943Z,96.88
2023-01-10T21:34:36.837Z,96.98
2023-01-10T21:39:36.746Z,97.19
2023-01-10T21:44:36.693Z,97.29
2023-01-10T21:49:36.614Z,97.39
2023-01-10T21:54:36.568Z,97.50
2023-01-10T21:59:36.521Z,97.60
2023-01-10T22:04:36.442Z,97.91
2023-01-10T22:09:36.353Z,97.71
2023-01-10T22:14:36.312Z,98.11
2023-01-10T22:19:36.221Z,98.32
2023-01-10T22:24:36.219Z,98.43
2023-01-10T22:29:36.086Z,98.32
2023-01-10T22:34:36.035Z,98.22
2023-01-10T22:39:36.021Z,97.76
2023-01-10T22:44:35.910Z,97.66
2023-01-10T22:49:35.823Z,97.97
2023-01-10T22:54:35.758Z,98.18
2023-01-10T22:59:35.751Z,98.49
2023-01-10T23:04:35.614Z,98.79
2023-01-10T23:09:35.549Z,99.21
2023-01-10T23:14:35.498Z,99.25
2023-01-10T23:19:35.396Z,99.52
2023-01-10T23:24:35.366Z,99.62
2023-01-10T23:29:35.294Z,99.62
2023-01-10T23:34:35.234Z,99.72
2023-01-10T23:39:35.162Z,99.52
2023-01-10T23:44:35.081Z,99.62
2023-01-10T23:49:35.006Z,99.00
2023-01-10T23:54:34.960Z,99.21
2023-01-10T23:59:34.884Z,99.21
